NDF255 EDXW-EDDH
Flight info
| Callsign | NDF255 |
|---|---|
| Flight time | 0h 38m |
| Altitude | 9000 |
| Route | OLDIP1B OLDIP DCT BADOS DCT OMWEG/N0272F080 DCT RIBSO RIBSO3P |
| Aircraft | A320/M-SDE3FGHIRWY/LB1 |
Departure
| Time | 2026-03-26 21:35 |
|---|---|
| Airport | Westerland Sylt Airport (EDXW) |
Arrival
| Time | 2026-03-26 22:13 |
|---|---|
| Airport | Hamburg Helmut Schmidt Airport (EDDH) |
| Time | Latitude | Longitude | Altitude | Speed | Heading |
|---|---|---|---|---|---|
| 2026-03-26 21:17 | 54.91312 | 8.33104 | 58 ft | 0 kts | 271° |
| 2026-03-26 21:25 | 54.91312 | 8.33114 | 51 ft | 2 kts | 269° |
| 2026-03-26 21:25 | 54.91312 | 8.33143 | 56 ft | 2 kts | 266° |
| 2026-03-26 21:25 | 54.91312 | 8.33171 | 52 ft | 2 kts | 265° |
| 2026-03-26 21:26 | 54.91314 | 8.33200 | 52 ft | 2 kts | 258° |
| 2026-03-26 21:26 | 54.91319 | 8.33227 | 51 ft | 2 kts | 223° |
| 2026-03-26 21:26 | 54.91327 | 8.33238 | 51 ft | 0 kts | 211° |
| 2026-03-26 21:29 | 54.91312 | 8.33222 | 52 ft | 7 kts | 212° |
| 2026-03-26 21:30 | 54.91238 | 8.33183 | 58 ft | 15 kts | 186° |
| 2026-03-26 21:30 | 54.91105 | 8.33184 | 58 ft | 23 kts | 181° |
| 2026-03-26 21:30 | 54.91002 | 8.33126 | 54 ft | 24 kts | 208° |
| 2026-03-26 21:30 | 54.90834 | 8.33191 | 51 ft | 21 kts | 164° |
| 2026-03-26 21:31 | 54.90697 | 8.33232 | 58 ft | 19 kts | 174° |
| 2026-03-26 21:31 | 54.90568 | 8.33251 | 58 ft | 18 kts | 175° |
| 2026-03-26 21:31 | 54.90425 | 8.33333 | 58 ft | 15 kts | 151° |
| 2026-03-26 21:31 | 54.90335 | 8.33467 | 57 ft | 20 kts | 130° |
| 2026-03-26 21:32 | 54.90267 | 8.33698 | 52 ft | 24 kts | 105° |
| 2026-03-26 21:32 | 54.90245 | 8.33897 | 58 ft | 26 kts | 99° |
| 2026-03-26 21:32 | 54.90244 | 8.34228 | 54 ft | 23 kts | 79° |
| 2026-03-26 21:32 | 54.90271 | 8.34481 | 51 ft | 20 kts | 79° |
| 2026-03-26 21:33 | 54.90295 | 8.34709 | 58 ft | 18 kts | 79° |
| 2026-03-26 21:33 | 54.90316 | 8.34916 | 53 ft | 16 kts | 80° |
| 2026-03-26 21:33 | 54.90347 | 8.35095 | 51 ft | 14 kts | 62° |
| 2026-03-26 21:33 | 54.90419 | 8.35163 | 57 ft | 12 kts | 346° |
| 2026-03-26 21:34 | 54.90453 | 8.35125 | 55 ft | 1 kts | 324° |
| 2026-03-26 21:34 | 54.90555 | 8.34998 | 59 ft | 51 kts | 324° |
| 2026-03-26 21:34 | 54.91033 | 8.34401 | 54 ft | 114 kts | 324° |
| 2026-03-26 21:34 | 54.91764 | 8.33471 | 414 ft | 134 kts | 324° |
| 2026-03-26 21:35 | 54.92528 | 8.32533 | 1173 ft | 134 kts | 325° |
| 2026-03-26 21:35 | 54.93290 | 8.31631 | 1960 ft | 131 kts | 326° |
| 2026-03-26 21:35 | 54.94057 | 8.30724 | 2513 ft | 139 kts | 324° |
| 2026-03-26 21:35 | 54.94895 | 8.29692 | 2850 ft | 158 kts | 324° |
| 2026-03-26 21:36 | 54.95847 | 8.28473 | 3114 ft | 182 kts | 321° |
| 2026-03-26 21:36 | 54.96551 | 8.26476 | 3493 ft | 215 kts | 285° |
| 2026-03-26 21:36 | 54.96295 | 8.23727 | 3966 ft | 253 kts | 246° |
| 2026-03-26 21:36 | 54.94966 | 8.21559 | 4756 ft | 277 kts | 209° |
| 2026-03-26 21:37 | 54.93064 | 8.20715 | 5626 ft | 286 kts | 194° |
| 2026-03-26 21:37 | 54.91120 | 8.19944 | 6562 ft | 289 kts | 193° |
| 2026-03-26 21:37 | 54.89099 | 8.20260 | 7369 ft | 300 kts | 159° |
| 2026-03-26 21:37 | 54.87325 | 8.22180 | 8224 ft | 303 kts | 142° |
| 2026-03-26 21:38 | 54.85617 | 8.24274 | 9093 ft | 306 kts | 145° |
| 2026-03-26 21:38 | 54.83815 | 8.26328 | 10061 ft | 306 kts | 147° |
| 2026-03-26 21:38 | 54.81993 | 8.28324 | 10476 ft | 325 kts | 148° |
| 2026-03-26 21:38 | 54.79999 | 8.30467 | 10709 ft | 349 kts | 148° |
| 2026-03-26 21:39 | 54.77865 | 8.32745 | 10887 ft | 372 kts | 148° |
| 2026-03-26 21:39 | 54.75627 | 8.35133 | 11373 ft | 383 kts | 148° |
| 2026-03-26 21:39 | 54.73338 | 8.37579 | 11989 ft | 389 kts | 148° |
| 2026-03-26 21:39 | 54.71028 | 8.40054 | 12752 ft | 390 kts | 148° |
| 2026-03-26 21:40 | 54.68727 | 8.42522 | 13668 ft | 389 kts | 148° |
| 2026-03-26 21:40 | 54.66417 | 8.44996 | 14261 ft | 394 kts | 147° |
| 2026-03-26 21:40 | 54.64065 | 8.47514 | 14779 ft | 400 kts | 147° |
| 2026-03-26 21:40 | 54.61682 | 8.50061 | 15322 ft | 406 kts | 146° |
| 2026-03-26 21:41 | 54.59264 | 8.52643 | 15806 ft | 412 kts | 146° |
| 2026-03-26 21:41 | 54.56803 | 8.55266 | 16263 ft | 419 kts | 145° |
| 2026-03-26 21:41 | 54.54300 | 8.57930 | 16721 ft | 426 kts | 144° |
| 2026-03-26 21:41 | 54.51760 | 8.60632 | 17200 ft | 433 kts | 144° |
| 2026-03-26 21:42 | 54.49211 | 8.63343 | 18024 ft | 428 kts | 146° |
| 2026-03-26 21:42 | 54.46679 | 8.66028 | 18631 ft | 429 kts | 145° |
| 2026-03-26 21:42 | 54.44124 | 8.68737 | 19008 ft | 435 kts | 145° |
| 2026-03-26 21:42 | 54.41526 | 8.71485 | 19306 ft | 443 kts | 144° |
| 2026-03-26 21:43 | 54.38879 | 8.74276 | 19638 ft | 450 kts | 144° |
| 2026-03-26 21:43 | 54.36196 | 8.77108 | 19982 ft | 456 kts | 143° |
| 2026-03-26 21:43 | 54.33475 | 8.79977 | 20317 ft | 462 kts | 143° |
| 2026-03-26 21:43 | 54.30719 | 8.82876 | 20669 ft | 468 kts | 143° |
| 2026-03-26 21:44 | 54.27925 | 8.85809 | 20963 ft | 474 kts | 142° |
| 2026-03-26 21:44 | 54.25096 | 8.88773 | 21166 ft | 482 kts | 142° |
| 2026-03-26 21:44 | 54.22198 | 8.91806 | 20959 ft | 488 kts | 143° |
| 2026-03-26 21:44 | 54.19341 | 8.94770 | 20698 ft | 473 kts | 143° |
| 2026-03-26 21:45 | 54.16564 | 8.97635 | 20447 ft | 460 kts | 143° |
| 2026-03-26 21:45 | 54.13864 | 9.00419 | 20251 ft | 446 kts | 143° |
| 2026-03-26 21:45 | 54.11253 | 9.03114 | 20165 ft | 431 kts | 144° |
| 2026-03-26 21:45 | 54.08734 | 9.05722 | 20033 ft | 416 kts | 144° |
| 2026-03-26 21:46 | 54.06330 | 9.08214 | 19911 ft | 392 kts | 144° |
| 2026-03-26 21:46 | 54.04061 | 9.10567 | 19622 ft | 373 kts | 143° |
| 2026-03-26 21:46 | 54.02074 | 9.13408 | 19379 ft | 378 kts | 125° |
| 2026-03-26 21:46 | 54.00666 | 9.17192 | 19140 ft | 383 kts | 107° |
| 2026-03-26 21:47 | 54.00024 | 9.21651 | 18877 ft | 395 kts | 91° |
| 2026-03-26 21:47 | 53.99870 | 9.26389 | 18241 ft | 412 kts | 90° |
| 2026-03-26 21:47 | 53.99765 | 9.31328 | 18001 ft | 422 kts | 89° |
| 2026-03-26 21:47 | 53.99674 | 9.36327 | 18032 ft | 424 kts | 89° |
| 2026-03-26 21:48 | 53.99581 | 9.41344 | 18038 ft | 425 kts | 89° |
| 2026-03-26 21:48 | 53.99479 | 9.46368 | 18042 ft | 425 kts | 90° |
| 2026-03-26 21:48 | 53.99368 | 9.51394 | 18038 ft | 425 kts | 91° |
| 2026-03-26 21:48 | 53.99249 | 9.56338 | 18024 ft | 424 kts | 91° |
| 2026-03-26 21:49 | 53.99121 | 9.61331 | 18034 ft | 423 kts | 92° |
| 2026-03-26 21:49 | 53.98986 | 9.66321 | 18040 ft | 423 kts | 92° |
| 2026-03-26 21:49 | 53.98851 | 9.71315 | 17927 ft | 422 kts | 91° |
| 2026-03-26 21:49 | 53.98720 | 9.76217 | 16558 ft | 413 kts | 91° |
| 2026-03-26 21:50 | 53.98591 | 9.81091 | 15021 ft | 412 kts | 91° |
| 2026-03-26 21:50 | 53.98466 | 9.85910 | 13908 ft | 404 kts | 91° |
| 2026-03-26 21:50 | 53.98341 | 9.90638 | 12612 ft | 401 kts | 91° |
| 2026-03-26 21:50 | 53.98215 | 9.95331 | 12186 ft | 391 kts | 91° |
| 2026-03-26 21:51 | 53.98089 | 9.99890 | 11664 ft | 383 kts | 91° |
| 2026-03-26 21:51 | 53.97963 | 10.04356 | 11305 ft | 372 kts | 90° |
| 2026-03-26 21:51 | 53.97835 | 10.08644 | 11171 ft | 355 kts | 90° |
| 2026-03-26 21:51 | 53.97710 | 10.12744 | 11035 ft | 340 kts | 90° |
| 2026-03-26 21:52 | 53.97590 | 10.16676 | 10905 ft | 327 kts | 90° |
| 2026-03-26 21:52 | 53.97476 | 10.20460 | 10780 ft | 315 kts | 90° |
| 2026-03-26 21:52 | 53.97366 | 10.24112 | 10650 ft | 304 kts | 90° |
| 2026-03-26 21:52 | 53.97258 | 10.27645 | 10452 ft | 297 kts | 90° |
| 2026-03-26 21:53 | 53.97150 | 10.31117 | 10252 ft | 293 kts | 89° |
| 2026-03-26 21:53 | 53.96915 | 10.34562 | 9648 ft | 300 kts | 104° |
| 2026-03-26 21:53 | 53.95949 | 10.37677 | 9009 ft | 300 kts | 129° |
| 2026-03-26 21:53 | 53.94345 | 10.39892 | 8328 ft | 298 kts | 154° |
| 2026-03-26 21:54 | 53.92441 | 10.41265 | 7600 ft | 296 kts | 159° |
| 2026-03-26 21:54 | 53.90537 | 10.42560 | 7007 ft | 293 kts | 160° |
| 2026-03-26 21:54 | 53.88629 | 10.43611 | 6548 ft | 292 kts | 174° |
| 2026-03-26 21:54 | 53.86636 | 10.43547 | 6152 ft | 283 kts | 196° |
| 2026-03-26 21:55 | 53.84846 | 10.42337 | 5789 ft | 271 kts | 218° |
| 2026-03-26 21:55 | 53.83488 | 10.40321 | 5641 ft | 252 kts | 235° |
| 2026-03-26 21:55 | 53.82397 | 10.38096 | 5515 ft | 240 kts | 235° |
| 2026-03-26 21:55 | 53.81345 | 10.35970 | 5275 ft | 233 kts | 235° |
| 2026-03-26 21:56 | 53.80286 | 10.33852 | 4737 ft | 240 kts | 233° |
| 2026-03-26 21:56 | 53.79190 | 10.31736 | 4434 ft | 235 kts | 234° |
| 2026-03-26 21:56 | 53.78158 | 10.29666 | 4303 ft | 226 kts | 235° |
| 2026-03-26 21:56 | 53.77166 | 10.27632 | 4203 ft | 223 kts | 236° |
| 2026-03-26 21:57 | 53.76178 | 10.25604 | 4052 ft | 222 kts | 236° |
| 2026-03-26 21:57 | 53.75197 | 10.23594 | 3766 ft | 221 kts | 236° |
| 2026-03-26 21:57 | 53.74234 | 10.21625 | 3473 ft | 214 kts | 236° |
| 2026-03-26 21:57 | 53.73299 | 10.19714 | 3180 ft | 208 kts | 236° |
| 2026-03-26 21:58 | 53.72391 | 10.17861 | 2891 ft | 202 kts | 236° |
| 2026-03-26 21:58 | 53.71511 | 10.16064 | 2635 ft | 194 kts | 236° |
| 2026-03-26 21:58 | 53.70682 | 10.14381 | 2602 ft | 172 kts | 237° |
| 2026-03-26 21:58 | 53.69901 | 10.12811 | 3169 ft | 180 kts | 237° |
| 2026-03-26 21:59 | 53.69073 | 10.11131 | 3546 ft | 194 kts | 237° |
| 2026-03-26 21:59 | 53.68304 | 10.09264 | 3652 ft | 192 kts | 250° |
| 2026-03-26 21:59 | 53.67920 | 10.07142 | 3863 ft | 187 kts | 269° |
| 2026-03-26 21:59 | 53.67980 | 10.04976 | 3898 ft | 184 kts | 287° |
| 2026-03-26 22:00 | 53.68454 | 10.03016 | 3673 ft | 178 kts | 305° |
| 2026-03-26 22:00 | 53.69249 | 10.01480 | 3594 ft | 168 kts | 317° |
| 2026-03-26 22:00 | 53.70164 | 10.00283 | 3654 ft | 166 kts | 323° |
| 2026-03-26 22:00 | 53.71190 | 9.99421 | 3705 ft | 168 kts | 348° |
| 2026-03-26 22:01 | 53.72354 | 9.99491 | 3987 ft | 165 kts | 5° |
| 2026-03-26 22:01 | 53.73363 | 9.99794 | 5112 ft | 134 kts | 7° |
| 2026-03-26 22:01 | 53.74316 | 10.00595 | 5188 ft | 174 kts | 35° |
| 2026-03-26 22:01 | 53.75176 | 10.02168 | 5164 ft | 187 kts | 44° |
| 2026-03-26 22:02 | 53.76042 | 10.03803 | 5234 ft | 187 kts | 39° |
| 2026-03-26 22:02 | 53.76987 | 10.05300 | 5334 ft | 186 kts | 34° |
| 2026-03-26 22:02 | 53.77998 | 10.06640 | 5447 ft | 184 kts | 30° |
| 2026-03-26 22:02 | 53.79050 | 10.07885 | 5487 ft | 187 kts | 37° |
| 2026-03-26 22:03 | 53.79889 | 10.09593 | 5573 ft | 191 kts | 49° |
| 2026-03-26 22:03 | 53.80637 | 10.11455 | 5656 ft | 192 kts | 50° |
| 2026-03-26 22:03 | 53.81393 | 10.13307 | 5733 ft | 191 kts | 49° |
| 2026-03-26 22:03 | 53.82177 | 10.15130 | 5832 ft | 192 kts | 46° |
| 2026-03-26 22:04 | 53.82990 | 10.16933 | 5909 ft | 193 kts | 45° |
| 2026-03-26 22:04 | 53.83823 | 10.18722 | 5989 ft | 193 kts | 45° |
| 2026-03-26 22:04 | 53.84664 | 10.20497 | 6070 ft | 193 kts | 44° |
| 2026-03-26 22:04 | 53.85508 | 10.22274 | 6151 ft | 194 kts | 44° |
| 2026-03-26 22:05 | 53.86358 | 10.24048 | 6122 ft | 195 kts | 44° |
| 2026-03-26 22:05 | 53.87170 | 10.25848 | 5852 ft | 191 kts | 57° |
| 2026-03-26 22:05 | 53.87385 | 10.28030 | 5775 ft | 198 kts | 98° |
| 2026-03-26 22:05 | 53.86710 | 10.30052 | 5730 ft | 202 kts | 139° |
| 2026-03-26 22:06 | 53.85609 | 10.31603 | 5698 ft | 204 kts | 141° |
| 2026-03-26 22:06 | 53.84502 | 10.33100 | 5648 ft | 204 kts | 149° |
| 2026-03-26 22:06 | 53.83225 | 10.34054 | 5615 ft | 200 kts | 171° |
| 2026-03-26 22:06 | 53.81880 | 10.34223 | 5522 ft | 195 kts | 192° |
| 2026-03-26 22:07 | 53.80603 | 10.33647 | 5363 ft | 187 kts | 212° |
| 2026-03-26 22:07 | 53.79550 | 10.32444 | 5143 ft | 181 kts | 231° |
| 2026-03-26 22:07 | 53.78735 | 10.30848 | 4901 ft | 179 kts | 237° |
| 2026-03-26 22:07 | 53.77945 | 10.29224 | 4663 ft | 179 kts | 237° |
| 2026-03-26 22:08 | 53.77154 | 10.27602 | 4405 ft | 179 kts | 237° |
| 2026-03-26 22:08 | 53.76366 | 10.25986 | 4153 ft | 178 kts | 237° |
| 2026-03-26 22:08 | 53.75579 | 10.24374 | 3903 ft | 178 kts | 237° |
| 2026-03-26 22:08 | 53.74794 | 10.22768 | 3666 ft | 176 kts | 237° |
| 2026-03-26 22:09 | 53.74015 | 10.21174 | 3407 ft | 176 kts | 237° |
| 2026-03-26 22:09 | 53.73238 | 10.19587 | 3163 ft | 175 kts | 237° |
| 2026-03-26 22:09 | 53.72465 | 10.18007 | 2916 ft | 174 kts | 237° |
| 2026-03-26 22:09 | 53.71696 | 10.16438 | 2664 ft | 173 kts | 237° |
| 2026-03-26 22:10 | 53.70933 | 10.14881 | 2435 ft | 172 kts | 237° |
| 2026-03-26 22:10 | 53.70187 | 10.13365 | 2218 ft | 160 kts | 237° |
| 2026-03-26 22:10 | 53.69511 | 10.11993 | 1974 ft | 145 kts | 238° |
| 2026-03-26 22:10 | 53.68887 | 10.10721 | 1774 ft | 138 kts | 238° |
| 2026-03-26 22:11 | 53.68285 | 10.09492 | 1584 ft | 134 kts | 238° |
| 2026-03-26 22:11 | 53.67694 | 10.08289 | 1393 ft | 132 kts | 237° |
| 2026-03-26 22:11 | 53.67113 | 10.07105 | 1208 ft | 131 kts | 237° |
| 2026-03-26 22:11 | 53.66535 | 10.05929 | 1027 ft | 130 kts | 236° |
| 2026-03-26 22:12 | 53.65969 | 10.04778 | 830 ft | 129 kts | 233° |
| 2026-03-26 22:12 | 53.65398 | 10.03612 | 631 ft | 129 kts | 233° |
| 2026-03-26 22:12 | 53.64827 | 10.02421 | 432 ft | 128 kts | 231° |
| 2026-03-26 22:12 | 53.64254 | 10.01283 | 257 ft | 129 kts | 232° |
| 2026-03-26 22:13 | 53.63680 | 10.00124 | 95 ft | 129 kts | 231° |
| 2026-03-26 22:13 | 53.63143 | 9.99039 | 48 ft | 107 kts | 231° |
| 2026-03-26 22:13 | 53.62768 | 9.98278 | 43 ft | 60 kts | 230° |
| 2026-03-26 22:13 | 53.62562 | 9.97865 | 41 ft | 34 kts | 231° |
| 2026-03-26 22:14 | 53.62429 | 9.97879 | 45 ft | 16 kts | 105° |
| 2026-03-26 22:14 | 53.62439 | 9.98011 | 47 ft | 13 kts | 82° |
| 2026-03-26 22:14 | 53.62461 | 9.98219 | 47 ft | 23 kts | 78° |
| 2026-03-26 22:14 | 53.62499 | 9.98529 | 47 ft | 31 kts | 78° |
| 2026-03-26 22:15 | 53.62546 | 9.98932 | 47 ft | 39 kts | 79° |
| 2026-03-26 22:15 | 53.62600 | 9.99404 | 47 ft | 41 kts | 78° |
| 2026-03-26 22:15 | 53.62649 | 9.99776 | 46 ft | 28 kts | 70° |
| 2026-03-26 22:15 | 53.62736 | 9.99909 | 46 ft | 19 kts | 21° |
| 2026-03-26 22:16 | 53.62816 | 9.99980 | 48 ft | 12 kts | 47° |
| 2026-03-26 22:16 | 53.62886 | 10.00071 | 48 ft | 17 kts | 30° |
| 2026-03-26 22:16 | 53.62895 | 10.00207 | 48 ft | 12 kts | 123° |
| 2026-03-26 22:16 | 53.62888 | 10.00225 | 47 ft | 0 kts | 122° |